Spicer, Minnesota
Current Conditions -  °F | °C
As of 7:15 AM on Sunday 21 Dec 2014 (Local Time) from KBDH Reporting Station
Haze Haze  
Wind Chill: -4°   Ceiling: 400
Heat Index:   Visibility: 3mi
Dew Point: -1°   Wind: 8mph
Humidity: 93%   Direction: 160°SSE
Pressure: 29.84"   Gusts: NA
Location:  45.23°N, 94.94°W
Report Text: KBDH 211315Z AUTO 16007KT 3SM BR OVC004 00/M01 A2984 RMK AO2
Loading
Personal Weather Stations






























Interactive Weather Map New forecast layout! Learn more

10-Day Weather Forecast

Advertisements
Track Severe Weather on mobile